sensor_id;sensor_type;location;lat;lon;timestamp;P1;durP1;ratioP1;P2;durP2;ratioP2
39264;SDS011;42646;51.910;7.724;2022-08-01T00:00:48;11.05;;;7.55;;
39264;SDS011;42646;51.910;7.724;2022-08-01T00:03:16;11.23;;;8.45;;
39264;SDS011;42646;51.910;7.724;2022-08-01T00:05:44;9.80;;;8.05;;
39264;SDS011;42646;51.910;7.724;2022-08-01T00:08:12;10.40;;;8.20;;
39264;SDS011;42646;51.910;7.724;2022-08-01T00:10:40;10.30;;;8.35;;
39264;SDS011;42646;51.910;7.724;2022-08-01T00:13:08;10.43;;;8.40;;
39264;SDS011;42646;51.910;7.724;2022-08-01T00:15:36;11.85;;;8.63;;
39264;SDS011;42646;51.910;7.724;2022-08-01T00:18:05;11.90;;;9.25;;
39264;SDS011;42646;51.910;7.724;2022-08-01T00:20:33;11.20;;;7.70;;
39264;SDS011;42646;51.910;7.724;2022-08-01T00:23:01;10.45;;;7.10;;
39264;SDS011;42646;51.910;7.724;2022-08-01T00:25:30;10.15;;;7.15;;
39264;SDS011;42646;51.910;7.724;2022-08-01T00:27:59;12.18;;;6.85;;
39264;SDS011;42646;51.910;7.724;2022-08-01T00:30:29;8.10;;;6.75;;
39264;SDS011;42646;51.910;7.724;2022-08-01T00:32:57;8.93;;;6.38;;
39264;SDS011;42646;51.910;7.724;2022-08-01T00:35:26;10.27;;;6.88;;
39264;SDS011;42646;51.910;7.724;2022-08-01T00:37:54;7.85;;;6.45;;
39264;SDS011;42646;51.910;7.724;2022-08-01T00:40:21;8.98;;;6.40;;
39264;SDS011;42646;51.910;7.724;2022-08-01T00:42:49;9.30;;;6.53;;
39264;SDS011;42646;51.910;7.724;2022-08-01T00:45:17;9.35;;;6.63;;
39264;SDS011;42646;51.910;7.724;2022-08-01T00:47:45;9.07;;;6.03;;
39264;SDS011;42646;51.910;7.724;2022-08-01T00:50:20;9.50;;;6.20;;
39264;SDS011;42646;51.910;7.724;2022-08-01T00:52:51;9.07;;;6.32;;
39264;SDS011;42646;51.910;7.724;2022-08-01T00:55:19;11.63;;;7.13;;
39264;SDS011;42646;51.910;7.724;2022-08-01T00:57:47;9.70;;;6.75;;
39264;SDS011;42646;51.910;7.724;2022-08-01T01:00:31;8.88;;;6.47;;
39264;SDS011;42646;51.910;7.724;2022-08-01T01:03:19;9.13;;;6.90;;
39264;SDS011;42646;51.910;7.724;2022-08-01T01:06:10;9.73;;;6.55;;
39264;SDS011;42646;51.910;7.724;2022-08-01T01:08:46;10.18;;;7.18;;
39264;SDS011;42646;51.910;7.724;2022-08-01T01:11:27;8.38;;;6.78;;
39264;SDS011;42646;51.910;7.724;2022-08-01T01:14:00;8.88;;;6.80;;
39264;SDS011;42646;51.910;7.724;2022-08-01T01:16:31;9.70;;;6.47;;
39264;SDS011;42646;51.910;7.724;2022-08-01T01:19:02;10.43;;;6.57;;
39264;SDS011;42646;51.910;7.724;2022-08-01T01:21:43;9.35;;;7.07;;
39264;SDS011;42646;51.910;7.724;2022-08-01T01:24:21;9.43;;;6.57;;
39264;SDS011;42646;51.910;7.724;2022-08-01T01:27:01;9.55;;;6.90;;
39264;SDS011;42646;51.910;7.724;2022-08-01T01:29:40;8.45;;;6.30;;
39264;SDS011;42646;51.910;7.724;2022-08-01T01:32:27;8.57;;;6.80;;
39264;SDS011;42646;51.910;7.724;2022-08-01T01:34:59;9.30;;;6.25;;
39264;SDS011;42646;51.910;7.724;2022-08-01T01:37:32;9.48;;;6.50;;
39264;SDS011;42646;51.910;7.724;2022-08-01T01:40:01;8.20;;;6.15;;
39264;SDS011;42646;51.910;7.724;2022-08-01T01:42:31;9.88;;;6.47;;
39264;SDS011;42646;51.910;7.724;2022-08-01T01:45:01;8.63;;;6.10;;
39264;SDS011;42646;51.910;7.724;2022-08-01T01:47:31;9.65;;;6.15;;
39264;SDS011;42646;51.910;7.724;2022-08-01T01:50:00;7.53;;;5.85;;
39264;SDS011;42646;51.910;7.724;2022-08-01T01:52:29;8.65;;;5.90;;
39264;SDS011;42646;51.910;7.724;2022-08-01T01:54:59;9.55;;;6.40;;
39264;SDS011;42646;51.910;7.724;2022-08-01T01:57:28;7.57;;;5.57;;
39264;SDS011;42646;51.910;7.724;2022-08-01T01:59:58;7.45;;;5.60;;
39264;SDS011;42646;51.910;7.724;2022-08-01T02:04:57;8.70;;;6.32;;
39264;SDS011;42646;51.910;7.724;2022-08-01T02:07:26;8.68;;;6.50;;
39264;SDS011;42646;51.910;7.724;2022-08-01T02:09:55;8.85;;;6.63;;
39264;SDS011;42646;51.910;7.724;2022-08-01T02:12:24;9.85;;;6.13;;
39264;SDS011;42646;51.910;7.724;2022-08-01T02:14:53;7.72;;;5.82;;
39264;SDS011;42646;51.910;7.724;2022-08-01T02:17:23;8.00;;;6.18;;
39264;SDS011;42646;51.910;7.724;2022-08-01T02:19:52;8.30;;;5.75;;
39264;SDS011;42646;51.910;7.724;2022-08-01T02:22:21;9.32;;;6.50;;
39264;SDS011;42646;51.910;7.724;2022-08-01T02:24:57;8.38;;;6.05;;
39264;SDS011;42646;51.910;7.724;2022-08-01T02:27:28;8.40;;;6.05;;
39264;SDS011;42646;51.910;7.724;2022-08-01T02:30:01;8.88;;;6.40;;
39264;SDS011;42646;51.910;7.724;2022-08-01T02:32:34;9.20;;;6.37;;
39264;SDS011;42646;51.910;7.724;2022-08-01T02:35:05;9.88;;;6.30;;
39264;SDS011;42646;51.910;7.724;2022-08-01T02:37:36;8.27;;;6.18;;
39264;SDS011;42646;51.910;7.724;2022-08-01T02:40:09;9.05;;;5.93;;
39264;SDS011;42646;51.910;7.724;2022-08-01T02:42:40;7.45;;;5.85;;
39264;SDS011;42646;51.910;7.724;2022-08-01T02:45:11;8.63;;;6.43;;
39264;SDS011;42646;51.910;7.724;2022-08-01T02:47:41;8.70;;;6.00;;
39264;SDS011;42646;51.910;7.724;2022-08-01T02:50:12;8.23;;;5.88;;
39264;SDS011;42646;51.910;7.724;2022-08-01T02:52:43;8.77;;;5.88;;
39264;SDS011;42646;51.910;7.724;2022-08-01T02:55:13;8.88;;;6.07;;
39264;SDS011;42646;51.910;7.724;2022-08-01T02:57:42;8.63;;;6.25;;
39264;SDS011;42646;51.910;7.724;2022-08-01T03:00:22;8.88;;;6.07;;
39264;SDS011;42646;51.910;7.724;2022-08-01T03:02:53;7.90;;;6.10;;
39264;SDS011;42646;51.910;7.724;2022-08-01T03:05:22;10.63;;;6.22;;
39264;SDS011;42646;51.910;7.724;2022-08-01T03:07:52;8.88;;;6.13;;
39264;SDS011;42646;51.910;7.724;2022-08-01T03:10:28;10.65;;;6.15;;
39264;SDS011;42646;51.910;7.724;2022-08-01T03:12:57;8.10;;;6.10;;
39264;SDS011;42646;51.910;7.724;2022-08-01T03:15:27;7.97;;;6.10;;
39264;SDS011;42646;51.910;7.724;2022-08-01T03:17:59;8.85;;;6.13;;
39264;SDS011;42646;51.910;7.724;2022-08-01T03:20:29;9.18;;;6.13;;
39264;SDS011;42646;51.910;7.724;2022-08-01T03:23:00;8.35;;;5.88;;
39264;SDS011;42646;51.910;7.724;2022-08-01T03:25:30;7.85;;;5.65;;
39264;SDS011;42646;51.910;7.724;2022-08-01T03:28:01;7.50;;;5.60;;
39264;SDS011;42646;51.910;7.724;2022-08-01T03:30:30;8.70;;;5.43;;
39264;SDS011;42646;51.910;7.724;2022-08-01T03:33:01;8.85;;;5.65;;
39264;SDS011;42646;51.910;7.724;2022-08-01T03:35:29;9.35;;;5.90;;
39264;SDS011;42646;51.910;7.724;2022-08-01T03:38:03;7.10;;;5.40;;
39264;SDS011;42646;51.910;7.724;2022-08-01T03:40:43;8.82;;;5.55;;
39264;SDS011;42646;51.910;7.724;2022-08-01T03:43:16;8.98;;;5.72;;
39264;SDS011;42646;51.910;7.724;2022-08-01T03:45:48;7.88;;;5.80;;
39264;SDS011;42646;51.910;7.724;2022-08-01T03:48:22;7.68;;;5.50;;
39264;SDS011;42646;51.910;7.724;2022-08-01T03:50:55;7.47;;;5.07;;
39264;SDS011;42646;51.910;7.724;2022-08-01T03:53:25;8.57;;;5.80;;
39264;SDS011;42646;51.910;7.724;2022-08-01T03:55:57;8.00;;;5.50;;
39264;SDS011;42646;51.910;7.724;2022-08-01T03:58:27;6.88;;;5.10;;
39264;SDS011;42646;51.910;7.724;2022-08-01T04:00:55;8.15;;;5.57;;
39264;SDS011;42646;51.910;7.724;2022-08-01T04:03:25;6.57;;;4.70;;
39264;SDS011;42646;51.910;7.724;2022-08-01T04:05:54;6.95;;;5.30;;
39264;SDS011;42646;51.910;7.724;2022-08-01T04:08:22;6.75;;;5.18;;
39264;SDS011;42646;51.910;7.724;2022-08-01T04:10:55;7.82;;;5.20;;
39264;SDS011;42646;51.910;7.724;2022-08-01T04:13:24;7.97;;;5.25;;
39264;SDS011;42646;51.910;7.724;2022-08-01T04:16:02;7.57;;;5.25;;
39264;SDS011;42646;51.910;7.724;2022-08-01T04:18:32;8.45;;;5.20;;
39264;SDS011;42646;51.910;7.724;2022-08-01T04:20:59;6.57;;;4.38;;
39264;SDS011;42646;51.910;7.724;2022-08-01T04:23:27;6.47;;;4.75;;
39264;SDS011;42646;51.910;7.724;2022-08-01T04:25:58;7.47;;;5.22;;
39264;SDS011;42646;51.910;7.724;2022-08-01T04:28:30;7.07;;;4.85;;
39264;SDS011;42646;51.910;7.724;2022-08-01T04:31:02;6.55;;;4.88;;
39264;SDS011;42646;51.910;7.724;2022-08-01T04:33:33;7.25;;;4.78;;
39264;SDS011;42646;51.910;7.724;2022-08-01T04:36:02;7.10;;;4.38;;
39264;SDS011;42646;51.910;7.724;2022-08-01T04:38:34;6.47;;;4.90;;
39264;SDS011;42646;51.910;7.724;2022-08-01T04:41:03;6.82;;;4.72;;
39264;SDS011;42646;51.910;7.724;2022-08-01T04:43:35;6.75;;;4.72;;
39264;SDS011;42646;51.910;7.724;2022-08-01T04:46:03;6.13;;;4.53;;
39264;SDS011;42646;51.910;7.724;2022-08-01T04:48:36;6.47;;;4.50;;
39264;SDS011;42646;51.910;7.724;2022-08-01T04:51:11;7.43;;;4.70;;
39264;SDS011;42646;51.910;7.724;2022-08-01T04:53:39;6.53;;;4.75;;
39264;SDS011;42646;51.910;7.724;2022-08-01T04:56:07;6.13;;;4.53;;
39264;SDS011;42646;51.910;7.724;2022-08-01T04:58:35;7.80;;;4.47;;
39264;SDS011;42646;51.910;7.724;2022-08-01T05:01:02;5.93;;;4.30;;
39264;SDS011;42646;51.910;7.724;2022-08-01T05:03:30;6.22;;;4.18;;
39264;SDS011;42646;51.910;7.724;2022-08-01T05:06:05;5.68;;;4.40;;
39264;SDS011;42646;51.910;7.724;2022-08-01T05:08:33;5.18;;;3.95;;
39264;SDS011;42646;51.910;7.724;2022-08-01T05:11:02;5.78;;;4.03;;
39264;SDS011;42646;51.910;7.724;2022-08-01T05:13:29;6.25;;;3.83;;
39264;SDS011;42646;51.910;7.724;2022-08-01T05:15:57;6.95;;;4.28;;
39264;SDS011;42646;51.910;7.724;2022-08-01T05:18:25;5.18;;;3.65;;
39264;SDS011;42646;51.910;7.724;2022-08-01T05:20:54;5.80;;;3.78;;
39264;SDS011;42646;51.910;7.724;2022-08-01T05:23:23;4.90;;;3.40;;
39264;SDS011;42646;51.910;7.724;2022-08-01T05:26:08;5.28;;;3.95;;
39264;SDS011;42646;51.910;7.724;2022-08-01T05:28:40;5.03;;;3.47;;
39264;SDS011;42646;51.910;7.724;2022-08-01T05:31:08;5.68;;;3.80;;
39264;SDS011;42646;51.910;7.724;2022-08-01T05:33:35;5.25;;;3.47;;
39264;SDS011;42646;51.910;7.724;2022-08-01T05:36:03;6.32;;;4.07;;
39264;SDS011;42646;51.910;7.724;2022-08-01T05:38:33;5.65;;;3.75;;
39264;SDS011;42646;51.910;7.724;2022-08-01T05:41:00;5.63;;;3.67;;
39264;SDS011;42646;51.910;7.724;2022-08-01T05:43:28;4.95;;;3.55;;
39264;SDS011;42646;51.910;7.724;2022-08-01T05:45:56;5.88;;;3.80;;
39264;SDS011;42646;51.910;7.724;2022-08-01T05:48:24;5.85;;;3.70;;
39264;SDS011;42646;51.910;7.724;2022-08-01T05:50:52;6.15;;;3.95;;
39264;SDS011;42646;51.910;7.724;2022-08-01T05:53:24;5.10;;;3.42;;
39264;SDS011;42646;51.910;7.724;2022-08-01T05:55:53;5.75;;;3.85;;
39264;SDS011;42646;51.910;7.724;2022-08-01T05:58:21;5.47;;;4.00;;
39264;SDS011;42646;51.910;7.724;2022-08-01T06:00:49;5.35;;;3.78;;
39264;SDS011;42646;51.910;7.724;2022-08-01T06:03:17;6.57;;;3.97;;
39264;SDS011;42646;51.910;7.724;2022-08-01T06:05:45;5.43;;;3.72;;
39264;SDS011;42646;51.910;7.724;2022-08-01T06:08:13;5.72;;;3.92;;
39264;SDS011;42646;51.910;7.724;2022-08-01T06:10:40;5.22;;;3.50;;
39264;SDS011;42646;51.910;7.724;2022-08-01T06:13:10;5.80;;;4.18;;
39264;SDS011;42646;51.910;7.724;2022-08-01T06:15:37;5.07;;;3.70;;
39264;SDS011;42646;51.910;7.724;2022-08-01T06:18:06;5.43;;;3.80;;
39264;SDS011;42646;51.910;7.724;2022-08-01T06:20:33;4.78;;;3.72;;
39264;SDS011;42646;51.910;7.724;2022-08-01T06:23:01;5.55;;;3.78;;
39264;SDS011;42646;51.910;7.724;2022-08-01T06:25:51;5.15;;;3.53;;
39264;SDS011;42646;51.910;7.724;2022-08-01T06:28:22;4.82;;;3.45;;
39264;SDS011;42646;51.910;7.724;2022-08-01T06:30:51;5.15;;;3.75;;
39264;SDS011;42646;51.910;7.724;2022-08-01T06:33:19;4.53;;;3.08;;
39264;SDS011;42646;51.910;7.724;2022-08-01T06:35:47;5.63;;;3.42;;
39264;SDS011;42646;51.910;7.724;2022-08-01T06:38:15;5.80;;;3.55;;
39264;SDS011;42646;51.910;7.724;2022-08-01T06:40:43;4.82;;;3.40;;
39264;SDS011;42646;51.910;7.724;2022-08-01T06:43:10;4.80;;;3.50;;
39264;SDS011;42646;51.910;7.724;2022-08-01T06:45:39;4.40;;;3.30;;
39264;SDS011;42646;51.910;7.724;2022-08-01T06:48:07;4.38;;;3.20;;
39264;SDS011;42646;51.910;7.724;2022-08-01T06:50:35;4.78;;;3.17;;
39264;SDS011;42646;51.910;7.724;2022-08-01T06:53:03;4.90;;;3.50;;
39264;SDS011;42646;51.910;7.724;2022-08-01T06:55:31;5.45;;;3.40;;
39264;SDS011;42646;51.910;7.724;2022-08-01T06:57:58;4.20;;;3.20;;
39264;SDS011;42646;51.910;7.724;2022-08-01T07:00:26;4.57;;;3.33;;
39264;SDS011;42646;51.910;7.724;2022-08-01T07:02:55;4.72;;;3.50;;
39264;SDS011;42646;51.910;7.724;2022-08-01T07:05:24;4.38;;;3.20;;
39264;SDS011;42646;51.910;7.724;2022-08-01T07:07:53;4.05;;;3.20;;
39264;SDS011;42646;51.910;7.724;2022-08-01T07:10:21;3.60;;;2.60;;
39264;SDS011;42646;51.910;7.724;2022-08-01T07:12:49;3.78;;;2.60;;
39264;SDS011;42646;51.910;7.724;2022-08-01T07:15:17;3.47;;;2.50;;
39264;SDS011;42646;51.910;7.724;2022-08-01T07:17:47;4.88;;;2.80;;
39264;SDS011;42646;51.910;7.724;2022-08-01T07:20:15;3.65;;;2.40;;
39264;SDS011;42646;51.910;7.724;2022-08-01T07:22:44;2.95;;;2.08;;
39264;SDS011;42646;51.910;7.724;2022-08-01T07:25:13;3.17;;;2.30;;
39264;SDS011;42646;51.910;7.724;2022-08-01T07:27:41;3.15;;;2.30;;
39264;SDS011;42646;51.910;7.724;2022-08-01T07:30:09;3.88;;;2.47;;
39264;SDS011;42646;51.910;7.724;2022-08-01T07:32:38;3.30;;;2.38;;
39264;SDS011;42646;51.910;7.724;2022-08-01T07:35:06;3.85;;;2.42;;
39264;SDS011;42646;51.910;7.724;2022-08-01T07:37:35;5.15;;;2.65;;
39264;SDS011;42646;51.910;7.724;2022-08-01T07:40:14;3.47;;;2.40;;
39264;SDS011;42646;51.910;7.724;2022-08-01T07:42:43;3.40;;;2.45;;
39264;SDS011;42646;51.910;7.724;2022-08-01T07:45:11;3.70;;;2.55;;
39264;SDS011;42646;51.910;7.724;2022-08-01T07:47:39;3.47;;;2.10;;
39264;SDS011;42646;51.910;7.724;2022-08-01T07:50:07;3.38;;;2.30;;
39264;SDS011;42646;51.910;7.724;2022-08-01T07:52:36;3.40;;;2.20;;
39264;SDS011;42646;51.910;7.724;2022-08-01T07:55:04;2.90;;;2.10;;
39264;SDS011;42646;51.910;7.724;2022-08-01T07:57:33;3.03;;;2.20;;
39264;SDS011;42646;51.910;7.724;2022-08-01T08:00:01;3.30;;;2.28;;
39264;SDS011;42646;51.910;7.724;2022-08-01T08:02:30;3.00;;;2.30;;
39264;SDS011;42646;51.910;7.724;2022-08-01T08:04:58;3.65;;;2.63;;
39264;SDS011;42646;51.910;7.724;2022-08-01T08:07:26;4.88;;;2.50;;
39264;SDS011;42646;51.910;7.724;2022-08-01T08:09:55;3.72;;;2.70;;
39264;SDS011;42646;51.910;7.724;2022-08-01T08:12:22;3.60;;;2.63;;
39264;SDS011;42646;51.910;7.724;2022-08-01T08:14:55;4.57;;;3.10;;
39264;SDS011;42646;51.910;7.724;2022-08-01T08:17:22;4.22;;;3.00;;
39264;SDS011;42646;51.910;7.724;2022-08-01T08:19:50;4.18;;;2.42;;
39264;SDS011;42646;51.910;7.724;2022-08-01T08:22:18;4.05;;;3.20;;
39264;SDS011;42646;51.910;7.724;2022-08-01T08:24:45;4.97;;;3.63;;
39264;SDS011;42646;51.910;7.724;2022-08-01T08:27:14;5.43;;;4.40;;
39264;SDS011;42646;51.910;7.724;2022-08-01T08:29:44;7.28;;;5.80;;
39264;SDS011;42646;51.910;7.724;2022-08-01T08:32:12;7.95;;;7.10;;
39264;SDS011;42646;51.910;7.724;2022-08-01T08:34:40;8.63;;;7.72;;
39264;SDS011;42646;51.910;7.724;2022-08-01T08:37:08;7.47;;;6.68;;
39264;SDS011;42646;51.910;7.724;2022-08-01T08:39:36;7.25;;;6.38;;
39264;SDS011;42646;51.910;7.724;2022-08-01T08:42:07;6.15;;;4.93;;
39264;SDS011;42646;51.910;7.724;2022-08-01T08:44:37;4.93;;;3.60;;
39264;SDS011;42646;51.910;7.724;2022-08-01T08:47:10;4.43;;;3.13;;
39264;SDS011;42646;51.910;7.724;2022-08-01T08:49:45;3.88;;;3.20;;
39264;SDS011;42646;51.910;7.724;2022-08-01T08:52:15;4.45;;;2.97;;
39264;SDS011;42646;51.910;7.724;2022-08-01T08:54:45;3.88;;;2.92;;
39264;SDS011;42646;51.910;7.724;2022-08-01T08:57:14;4.45;;;3.10;;
39264;SDS011;42646;51.910;7.724;2022-08-01T08:59:43;4.55;;;3.33;;
39264;SDS011;42646;51.910;7.724;2022-08-01T09:02:11;4.47;;;3.30;;
39264;SDS011;42646;51.910;7.724;2022-08-01T09:04:40;4.95;;;3.70;;
39264;SDS011;42646;51.910;7.724;2022-08-01T09:07:08;4.43;;;3.63;;
39264;SDS011;42646;51.910;7.724;2022-08-01T09:09:37;4.78;;;3.80;;
39264;SDS011;42646;51.910;7.724;2022-08-01T09:12:07;4.90;;;3.90;;
39264;SDS011;42646;51.910;7.724;2022-08-01T09:14:36;4.70;;;3.42;;
39264;SDS011;42646;51.910;7.724;2022-08-01T09:17:14;4.18;;;2.95;;
39264;SDS011;42646;51.910;7.724;2022-08-01T09:19:43;4.00;;;2.40;;
39264;SDS011;42646;51.910;7.724;2022-08-01T09:22:14;3.50;;;2.50;;
39264;SDS011;42646;51.910;7.724;2022-08-01T09:24:56;3.92;;;2.40;;
39264;SDS011;42646;51.910;7.724;2022-08-01T09:27:25;4.13;;;2.45;;
39264;SDS011;42646;51.910;7.724;2022-08-01T09:29:54;3.80;;;2.63;;
39264;SDS011;42646;51.910;7.724;2022-08-01T09:32:33;4.05;;;2.75;;
39264;SDS011;42646;51.910;7.724;2022-08-01T09:38:12;3.88;;;2.70;;
39264;SDS011;42646;51.910;7.724;2022-08-01T09:40:49;4.90;;;3.00;;
39264;SDS011;42646;51.910;7.724;2022-08-01T09:43:19;4.72;;;3.00;;
39264;SDS011;42646;51.910;7.724;2022-08-01T09:45:50;4.03;;;3.03;;
39264;SDS011;42646;51.910;7.724;2022-08-01T09:48:20;4.38;;;3.05;;
39264;SDS011;42646;51.910;7.724;2022-08-01T09:50:55;3.78;;;2.45;;
39264;SDS011;42646;51.910;7.724;2022-08-01T09:53:41;4.57;;;3.08;;
39264;SDS011;42646;51.910;7.724;2022-08-01T09:56:18;3.70;;;2.40;;
39264;SDS011;42646;51.910;7.724;2022-08-01T09:58:50;3.47;;;2.25;;
39264;SDS011;42646;51.910;7.724;2022-08-01T10:01:27;4.28;;;2.40;;
39264;SDS011;42646;51.910;7.724;2022-08-01T10:04:04;5.03;;;2.95;;
39264;SDS011;42646;51.910;7.724;2022-08-01T10:06:35;6.32;;;3.10;;
39264;SDS011;42646;51.910;7.724;2022-08-01T10:09:03;4.68;;;3.10;;
39264;SDS011;42646;51.910;7.724;2022-08-01T10:11:31;6.25;;;3.50;;
39264;SDS011;42646;51.910;7.724;2022-08-01T10:14:04;5.57;;;3.42;;
39264;SDS011;42646;51.910;7.724;2022-08-01T10:16:35;6.22;;;3.92;;
39264;SDS011;42646;51.910;7.724;2022-08-01T10:19:05;5.82;;;4.00;;
39264;SDS011;42646;51.910;7.724;2022-08-01T10:21:41;6.13;;;4.10;;
39264;SDS011;42646;51.910;7.724;2022-08-01T10:24:25;5.03;;;2.80;;
39264;SDS011;42646;51.910;7.724;2022-08-01T10:26:55;4.03;;;2.42;;
39264;SDS011;42646;51.910;7.724;2022-08-01T10:29:40;4.05;;;2.47;;
39264;SDS011;42646;51.910;7.724;2022-08-01T10:32:14;3.63;;;2.47;;
39264;SDS011;42646;51.910;7.724;2022-08-01T10:34:43;4.45;;;2.60;;
39264;SDS011;42646;51.910;7.724;2022-08-01T10:37:14;3.67;;;2.67;;
39264;SDS011;42646;51.910;7.724;2022-08-01T10:39:43;4.03;;;2.50;;
39264;SDS011;42646;51.910;7.724;2022-08-01T10:42:12;5.38;;;3.03;;
39264;SDS011;42646;51.910;7.724;2022-08-01T10:44:41;4.43;;;3.13;;
39264;SDS011;42646;51.910;7.724;2022-08-01T10:47:15;4.20;;;2.58;;
39264;SDS011;42646;51.910;7.724;2022-08-01T10:49:53;4.13;;;2.80;;
39264;SDS011;42646;51.910;7.724;2022-08-01T10:52:29;3.95;;;2.50;;
39264;SDS011;42646;51.910;7.724;2022-08-01T10:55:05;3.97;;;2.40;;
39264;SDS011;42646;51.910;7.724;2022-08-01T10:57:42;5.25;;;2.50;;
39264;SDS011;42646;51.910;7.724;2022-08-01T11:00:18;4.47;;;2.65;;
39264;SDS011;42646;51.910;7.724;2022-08-01T11:02:58;3.67;;;2.80;;
39264;SDS011;42646;51.910;7.724;2022-08-01T11:05:28;4.63;;;3.05;;
39264;SDS011;42646;51.910;7.724;2022-08-01T11:08:00;6.13;;;3.00;;
39264;SDS011;42646;51.910;7.724;2022-08-01T11:10:31;4.95;;;2.90;;
39264;SDS011;42646;51.910;7.724;2022-08-01T11:13:05;4.65;;;2.75;;
39264;SDS011;42646;51.910;7.724;2022-08-01T11:15:34;4.82;;;3.10;;
39264;SDS011;42646;51.910;7.724;2022-08-01T11:18:32;4.28;;;3.00;;
39264;SDS011;42646;51.910;7.724;2022-08-01T11:21:03;4.90;;;3.20;;
39264;SDS011;42646;51.910;7.724;2022-08-01T11:23:51;4.93;;;3.85;;
39264;SDS011;42646;51.910;7.724;2022-08-01T11:26:20;5.43;;;3.75;;
39264;SDS011;42646;51.910;7.724;2022-08-01T11:29:14;4.68;;;3.72;;
39264;SDS011;42646;51.910;7.724;2022-08-01T11:31:46;4.38;;;3.60;;
39264;SDS011;42646;51.910;7.724;2022-08-01T11:34:16;5.63;;;4.10;;
39264;SDS011;42646;51.910;7.724;2022-08-01T11:36:45;5.53;;;4.35;;
39264;SDS011;42646;51.910;7.724;2022-08-01T11:39:28;5.32;;;4.10;;
39264;SDS011;42646;51.910;7.724;2022-08-01T11:42:17;6.00;;;4.68;;
39264;SDS011;42646;51.910;7.724;2022-08-01T11:44:49;4.93;;;4.18;;
39264;SDS011;42646;51.910;7.724;2022-08-01T11:47:18;5.75;;;4.13;;
39264;SDS011;42646;51.910;7.724;2022-08-01T11:50:07;5.90;;;3.85;;
39264;SDS011;42646;51.910;7.724;2022-08-01T11:53:01;5.22;;;3.83;;
39264;SDS011;42646;51.910;7.724;2022-08-01T11:55:31;4.70;;;3.90;;
39264;SDS011;42646;51.910;7.724;2022-08-01T11:58:01;4.53;;;3.70;;
39264;SDS011;42646;51.910;7.724;2022-08-01T12:00:30;6.95;;;3.60;;
39264;SDS011;42646;51.910;7.724;2022-08-01T12:02:59;5.80;;;4.20;;
39264;SDS011;42646;51.910;7.724;2022-08-01T12:05:30;5.28;;;3.95;;
39264;SDS011;42646;51.910;7.724;2022-08-01T12:08:01;6.75;;;4.13;;
39264;SDS011;42646;51.910;7.724;2022-08-01T12:10:30;7.03;;;4.07;;
39264;SDS011;42646;51.910;7.724;2022-08-01T12:13:15;7.20;;;4.70;;
39264;SDS011;42646;51.910;7.724;2022-08-01T12:15:44;5.07;;;2.75;;
39264;SDS011;42646;51.910;7.724;2022-08-01T12:18:12;4.50;;;2.10;;
39264;SDS011;42646;51.910;7.724;2022-08-01T12:20:41;3.47;;;1.90;;
39264;SDS011;42646;51.910;7.724;2022-08-01T12:23:23;3.30;;;1.80;;
39264;SDS011;42646;51.910;7.724;2022-08-01T12:25:51;3.15;;;1.70;;
39264;SDS011;42646;51.910;7.724;2022-08-01T12:28:20;4.35;;;2.00;;
39264;SDS011;42646;51.910;7.724;2022-08-01T12:30:49;4.15;;;2.70;;
39264;SDS011;42646;51.910;7.724;2022-08-01T12:33:17;4.53;;;2.72;;
39264;SDS011;42646;51.910;7.724;2022-08-01T12:35:46;5.03;;;3.08;;
39264;SDS011;42646;51.910;7.724;2022-08-01T12:38:15;4.68;;;3.35;;
39264;SDS011;42646;51.910;7.724;2022-08-01T12:40:46;4.00;;;3.10;;
39264;SDS011;42646;51.910;7.724;2022-08-01T12:43:19;4.53;;;3.45;;
39264;SDS011;42646;51.910;7.724;2022-08-01T12:45:54;4.35;;;3.30;;
39264;SDS011;42646;51.910;7.724;2022-08-01T12:48:24;4.47;;;3.20;;
39264;SDS011;42646;51.910;7.724;2022-08-01T12:50:52;4.88;;;3.35;;
39264;SDS011;42646;51.910;7.724;2022-08-01T12:53:23;5.20;;;3.95;;
39264;SDS011;42646;51.910;7.724;2022-08-01T12:56:06;6.88;;;4.47;;
39264;SDS011;42646;51.910;7.724;2022-08-01T12:58:34;5.63;;;4.00;;
39264;SDS011;42646;51.910;7.724;2022-08-01T13:01:02;5.53;;;4.63;;
39264;SDS011;42646;51.910;7.724;2022-08-01T13:03:31;7.72;;;4.82;;
39264;SDS011;42646;51.910;7.724;2022-08-01T13:06:01;5.78;;;4.22;;
39264;SDS011;42646;51.910;7.724;2022-08-01T13:08:37;6.18;;;4.00;;
39264;SDS011;42646;51.910;7.724;2022-08-01T13:11:07;5.70;;;3.97;;
39264;SDS011;42646;51.910;7.724;2022-08-01T13:13:37;7.17;;;4.77;;
39264;SDS011;42646;51.910;7.724;2022-08-01T13:16:06;6.85;;;5.00;;
39264;SDS011;42646;51.910;7.724;2022-08-01T13:18:47;8.23;;;4.72;;
39264;SDS011;42646;51.910;7.724;2022-08-01T13:21:17;6.53;;;5.00;;
39264;SDS011;42646;51.910;7.724;2022-08-01T13:24:03;8.35;;;5.55;;
39264;SDS011;42646;51.910;7.724;2022-08-01T13:26:46;7.07;;;5.50;;
39264;SDS011;42646;51.910;7.724;2022-08-01T13:29:15;7.43;;;5.65;;
39264;SDS011;42646;51.910;7.724;2022-08-01T13:31:44;6.60;;;5.22;;
39264;SDS011;42646;51.910;7.724;2022-08-01T13:34:14;7.43;;;5.20;;
39264;SDS011;42646;51.910;7.724;2022-08-01T13:36:42;8.15;;;5.18;;
39264;SDS011;42646;51.910;7.724;2022-08-01T13:39:15;8.02;;;5.20;;
39264;SDS011;42646;51.910;7.724;2022-08-01T13:42:02;7.00;;;5.15;;
39264;SDS011;42646;51.910;7.724;2022-08-01T13:44:31;7.65;;;5.65;;
39264;SDS011;42646;51.910;7.724;2022-08-01T13:46:59;9.32;;;5.80;;
39264;SDS011;42646;51.910;7.724;2022-08-01T13:49:36;8.45;;;5.38;;
39264;SDS011;42646;51.910;7.724;2022-08-01T13:52:06;6.82;;;4.70;;
39264;SDS011;42646;51.910;7.724;2022-08-01T13:54:34;7.13;;;4.68;;
39264;SDS011;42646;51.910;7.724;2022-08-01T13:57:04;6.82;;;4.13;;
39264;SDS011;42646;51.910;7.724;2022-08-01T13:59:31;6.53;;;3.78;;
39264;SDS011;42646;51.910;7.724;2022-08-01T14:01:59;6.05;;;3.53;;
39264;SDS011;42646;51.910;7.724;2022-08-01T14:04:27;4.85;;;3.58;;
39264;SDS011;42646;51.910;7.724;2022-08-01T14:06:55;5.72;;;3.13;;
39264;SDS011;42646;51.910;7.724;2022-08-01T14:09:24;6.45;;;3.38;;
39264;SDS011;42646;51.910;7.724;2022-08-01T14:11:57;5.38;;;3.15;;
39264;SDS011;42646;51.910;7.724;2022-08-01T14:14:26;4.88;;;2.67;;
39264;SDS011;42646;51.910;7.724;2022-08-01T14:16:54;4.18;;;2.65;;
39264;SDS011;42646;51.910;7.724;2022-08-01T14:19:22;7.97;;;2.97;;
39264;SDS011;42646;51.910;7.724;2022-08-01T14:22:04;4.90;;;2.72;;
39264;SDS011;42646;51.910;7.724;2022-08-01T14:24:33;4.35;;;2.75;;
39264;SDS011;42646;51.910;7.724;2022-08-01T14:27:04;8.48;;;2.67;;
39264;SDS011;42646;51.910;7.724;2022-08-01T14:29:33;6.13;;;3.30;;
39264;SDS011;42646;51.910;7.724;2022-08-01T14:32:20;5.45;;;2.92;;
39264;SDS011;42646;51.910;7.724;2022-08-01T14:34:54;4.55;;;2.88;;
39264;SDS011;42646;51.910;7.724;2022-08-01T14:37:22;4.63;;;2.60;;
39264;SDS011;42646;51.910;7.724;2022-08-01T14:39:54;7.97;;;2.45;;
39264;SDS011;42646;51.910;7.724;2022-08-01T14:42:24;4.85;;;2.50;;
39264;SDS011;42646;51.910;7.724;2022-08-01T14:44:53;6.57;;;2.75;;
39264;SDS011;42646;51.910;7.724;2022-08-01T14:47:21;4.93;;;2.45;;
39264;SDS011;42646;51.910;7.724;2022-08-01T14:49:48;5.60;;;2.38;;
39264;SDS011;42646;51.910;7.724;2022-08-01T14:52:16;4.43;;;2.33;;
39264;SDS011;42646;51.910;7.724;2022-08-01T14:54:45;5.95;;;2.35;;
39264;SDS011;42646;51.910;7.724;2022-08-01T14:57:13;5.65;;;2.30;;
39264;SDS011;42646;51.910;7.724;2022-08-01T14:59:44;5.57;;;3.05;;
39264;SDS011;42646;51.910;7.724;2022-08-01T15:02:13;4.68;;;2.30;;
39264;SDS011;42646;51.910;7.724;2022-08-01T15:04:43;5.85;;;2.67;;
39264;SDS011;42646;51.910;7.724;2022-08-01T15:07:11;6.60;;;2.75;;
39264;SDS011;42646;51.910;7.724;2022-08-01T15:09:39;7.60;;;3.20;;
39264;SDS011;42646;51.910;7.724;2022-08-01T15:12:07;6.70;;;2.97;;
39264;SDS011;42646;51.910;7.724;2022-08-01T15:14:36;6.22;;;2.72;;
39264;SDS011;42646;51.910;7.724;2022-08-01T15:17:18;5.97;;;2.63;;